Time;durP1;ratioP1;P1;durP2;ratioP2;P2;SDS_P1;SDS_P2;PMS_P1;PMS_P2;Temp;Humidity;BMP_temperature;BMP_pressure;BME280_temperature;BME280_humidity;BME280_pressure;Samples;Min_cycle;Max_cycle;Signal;HPM_P1;HPM_P2
2022/05/31 00:00:02;;;;;;;3.60;1.75;;;;;;;11.91;72.91;100492.44;18302676;32;20104;-66
2022/05/31 00:10:08;;;;;;;4.60;2.30;;;;;;;12.16;70.51;100496.66;18301329;32;20097;-66
2022/05/31 00:20:13;;;;;;;3.72;1.98;;;;;;;11.38;74.13;100495.31;18302378;32;20094;-66
2022/05/31 00:30:18;;;;;;;4.57;2.30;;;;;;;10.81;75.26;100503.28;18300717;32;20094;-66
2022/05/31 00:40:23;;;;;;;4.72;2.42;;;;;;;11.04;74.17;100498.00;18300025;32;20117;-66
2022/05/31 00:50:32;;;;;;;5.12;2.47;;;;;;;11.22;73.06;100504.94;18301288;32;20089;-66
2022/05/31 01:00:36;;;;;;;4.37;2.35;;;;;;;11.23;72.56;100511.03;18308511;32;20378;-66
2022/05/31 01:10:42;;;;;;;5.93;2.40;;;;;;;11.05;72.60;100515.47;18307358;32;20177;-66
2022/05/31 01:20:47;;;;;;;5.78;2.60;;;;;;;11.13;72.54;100518.03;18307753;32;20097;-66
2022/05/31 01:30:56;;;;;;;5.30;2.22;;;;;;;10.33;74.53;100538.06;18307224;32;20113;-66
2022/05/31 01:41:09;;;;;;;3.40;1.90;;;;;;;10.54;73.62;100546.84;18308200;32;20109;-66
2022/05/31 01:51:12;;;;;;;4.18;2.20;;;;;;;10.46;74.45;100561.63;18306514;32;20085;-66
2022/05/31 02:01:17;;;;;;;3.60;2.10;;;;;;;10.52;73.04;100572.03;18307434;32;20382;-66
2022/05/31 02:11:21;;;;;;;5.30;2.20;;;;;;;10.31;73.24;100570.28;18306040;32;20089;-66
2022/05/31 02:21:25;;;;;;;7.00;2.45;;;;;;;10.26;72.73;100576.34;18306228;32;20101;-66
2022/05/31 02:31:29;;;;;;;5.40;2.20;;;;;;;9.34;76.08;100574.25;18306086;32;20171;-65
2022/05/31 02:41:34;;;;;;;5.15;2.15;;;;;;;10.00;72.82;100569.31;18305906;32;20112;-66
2022/05/31 02:51:38;;;;;;;6.03;2.35;;;;;;;10.18;73.46;100583.28;18305538;32;20117;-66
2022/05/31 03:01:44;;;;;;;3.53;2.15;;;;;;;10.05;72.92;100574.53;18306225;32;20458;-66
2022/05/31 03:11:51;;;;;;;5.18;2.45;;;;;;;9.50;74.88;100591.72;18304544;32;20125;-66
2022/05/31 03:21:57;;;;;;;6.20;2.20;;;;;;;9.74;74.26;100590.09;18305641;32;20097;-66
2022/05/31 03:32:00;;;;;;;6.57;2.78;;;;;;;9.62;76.26;100577.00;18303822;32;20081;-66
2022/05/31 03:42:06;;;;;;;5.78;2.70;;;;;;;9.43;76.53;100576.91;18303600;32;20102;-66
2022/05/31 03:52:10;;;;;;;6.35;3.17;;;;;;;9.90;76.50;100587.56;18304111;32;20359;-66
2022/05/31 04:02:15;;;;;;;6.50;2.92;;;;;;;10.05;76.58;100586.72;18303597;32;20112;-66
2022/05/31 04:12:18;;;;;;;5.60;2.80;;;;;;;10.67;75.73;100592.94;18301604;32;20120;-66
2022/05/31 04:22:23;;;;;;;7.60;3.42;;;;;;;11.38;75.47;100585.91;18301165;32;20094;-66
2022/05/31 04:32:26;;;;;;;6.65;3.17;;;;;;;13.50;68.56;100589.78;18309026;32;20092;-66
2022/05/31 04:42:30;;;;;;;7.70;3.60;;;;;;;14.93;65.33;100590.41;18309014;32;20129;-66
2022/05/31 04:52:34;;;;;;;8.73;3.30;;;;;;;15.07;66.45;100591.03;18308458;32;20112;-66
2022/05/31 05:02:38;;;;;;;5.62;2.70;;;;;;;16.08;63.17;100582.94;18302638;32;195331;-66
2022/05/31 05:12:41;;;;;;;4.50;2.45;;;;;;;16.62;60.99;100578.19;18307359;32;20098;-66
2022/05/31 05:22:46;;;;;;;7.07;2.60;;;;;;;16.81;60.37;100585.66;18307463;32;20090;-66
2022/05/31 05:32:49;;;;;;;4.43;2.42;;;;;;;16.78;59.74;100582.16;18293326;32;20089;-66
2022/05/31 05:42:53;;;;;;;5.28;2.30;;;;;;;17.14;60.16;100586.56;18306864;32;20112;-66
2022/05/31 05:53:00;;;;;;;5.85;2.20;;;;;;;17.43;59.86;100571.72;18305988;32;20086;-67
2022/05/31 06:03:13;;;;;;;4.00;1.83;;;;;;;17.39;58.50;100575.31;18306717;32;20098;-66
2022/05/31 06:13:19;;;;;;;1.85;1.27;;;;;;;18.41;56.23;100566.19;18305959;32;20136;-66
2022/05/31 06:23:23;;;;;;;3.67;1.80;;;;;;;19.58;53.06;100571.94;18307004;32;20101;-66
2022/05/31 06:33:27;;;;;;;4.25;1.35;;;;;;;19.98;51.52;100580.19;18292691;32;20406;-66
2022/05/31 06:43:31;;;;;;;4.05;1.20;;;;;;;19.60;51.40;100575.38;18304874;32;20184;-67
2022/05/31 07:03:57;;;;;;;1.53;1.00;;;;;;;20.10;50.73;100598.25;18305047;32;20090;-67
2022/05/31 07:14:00;;;;;;;3.55;1.08;;;;;;;22.00;43.12;100591.09;18260376;32;20126;-64
2022/05/31 07:24:06;;;;;;;1.10;0.80;;;;;;;21.37;44.93;100592.16;18259910;32;20426;-65
2022/05/31 07:34:10;;;;;;;0.68;0.52;;;;;;;26.12;32.64;100570.22;18303182;32;20086;-65
2022/05/31 07:44:15;;;;;;;1.35;0.80;;;;;;;25.22;35.45;100581.12;18285475;32;20124;-65
2022/05/31 07:54:18;;;;;;;3.85;1.15;;;;;;;24.30;37.26;100590.97;18302935;32;20081;-65
2022/05/31 08:04:23;;;;;;;1.48;0.98;;;;;;;23.35;38.23;100588.94;18251008;32;20094;-65
2022/05/31 08:14:26;;;;;;;2.03;0.90;;;;;;;23.53;37.00;100596.91;18238972;32;20098;-65
2022/05/31 08:24:31;;;;;;;2.15;0.90;;;;;;;23.63;35.20;100583.94;18238028;32;20116;-65
2022/05/31 08:34:49;;;;;;;2.83;1.20;;;;;;;22.87;38.08;100592.25;18237452;32;20082;-65
2022/05/31 08:45:00;;;;;;;1.40;1.00;;;;;;;24.46;35.62;100589.09;18237899;32;20399;-65
2022/05/31 09:05:35;;;;;;;1.73;1.10;;;;;;;24.43;36.99;100594.62;18235641;32;20165;-65
2022/05/31 09:15:41;;;;;;;1.67;1.08;;;;;;;23.80;38.15;100583.00;18241057;32;20090;-65
2022/05/31 09:25:48;;;;;;;3.60;1.52;;;;;;;24.59;37.20;100575.06;18255984;32;20100;-65
2022/05/31 09:36:03;;;;;;;2.67;1.27;;;;;;;24.82;36.07;100573.75;18244581;32;20135;-65
2022/05/31 09:46:11;;;;;;;2.97;1.60;;;;;;;24.69;36.16;100568.25;18243584;32;20090;-65
2022/05/31 10:06:52;;;;;;;2.47;1.10;;;;;;;25.44;35.54;100553.13;18243114;32;20101;-66
2022/05/31 10:16:55;;;;;;;2.55;1.37;;;;;;;25.40;38.62;100551.56;18300269;32;20129;-64
2022/05/31 10:27:08;;;;;;;5.75;1.50;;;;;;;25.04;35.71;100530.59;18304614;32;20119;-65
2022/05/31 10:37:24;;;;;;;5.75;1.73;;;;;;;26.31;32.81;100539.59;18257602;32;20127;-64
2022/05/31 10:47:29;;;;;;;5.32;1.62;;;;;;;25.66;35.29;100533.06;18301605;32;20093;-65
2022/05/31 10:57:44;;;;;;;4.43;1.77;;;;;;;25.15;36.39;100537.09;18286713;32;20514;-65
2022/05/31 11:18:31;;;;;;;2.60;1.30;;;;;;;26.48;32.51;100521.56;18241646;32;20089;-65
2022/05/31 11:28:47;;;;;;;5.83;1.50;;;;;;;25.71;37.33;100518.44;18219987;32;20098;-65
2022/05/31 11:38:59;;;;;;;4.72;1.70;;;;;;;26.73;35.03;100513.53;18247396;32;20120;-65
2022/05/31 11:49:07;;;;;;;7.45;1.92;;;;;;;25.28;36.41;100505.09;18300222;32;20086;-65
2022/05/31 11:59:15;;;;;;;2.92;1.48;;;;;;;25.46;39.57;100498.59;18282627;32;20394;-66
2022/05/31 12:09:26;;;;;;;5.32;1.90;;;;;;;26.67;35.16;100487.22;18297237;32;20535;-65
2022/05/31 12:19:35;;;;;;;4.47;1.92;;;;;;;26.87;35.43;100484.97;18300899;32;20090;-65
2022/05/31 12:29:50;;;;;;;4.40;1.98;;;;;;;26.47;34.40;100480.53;18297273;32;20356;-65
2022/05/31 12:40:22;;;;;;;7.10;2.50;;;;;;;26.53;34.38;100463.19;18295286;32;20113;-66
2022/05/31 12:51:08;;;;;;;5.47;2.42;;;;;;;27.87;31.71;100448.44;18266567;32;20097;-65
2022/05/31 13:01:37;;;;;;;6.43;2.65;;;;;;;27.18;31.73;100439.97;18240631;32;20124;-66
2022/05/31 13:22:12;;;;;;;5.87;1.95;;;;;;;26.88;33.97;100425.12;18304342;32;20098;-67
2022/05/31 13:32:18;;;;;;;4.45;2.17;;;;;;;26.41;33.74;100420.28;18305286;32;20438;-65
2022/05/31 13:42:24;;;;;;;4.10;1.85;;;;;;;26.71;32.17;100402.19;18304434;32;20101;-65
2022/05/31 13:52:31;;;;;;;5.95;3.25;;;;;;;26.57;31.44;100405.84;18302999;32;20136;-65
2022/05/31 14:02:49;;;;;;;4.15;1.62;;;;;;;27.26;30.38;100385.81;18296628;32;20098;-65
2022/05/31 14:12:57;;;;;;;6.32;1.85;;;;;;;27.40;31.62;100377.62;18303750;32;20398;-65
2022/05/31 14:23:03;;;;;;;3.75;1.70;;;;;;;26.77;32.38;100379.47;18301306;32;20108;-65
2022/05/31 14:33:14;;;;;;;4.12;1.50;;;;;;;26.18;31.49;100371.84;18301275;32;20478;-65
2022/05/31 14:43:29;;;;;;;2.50;1.25;;;;;;;26.71;31.56;100359.34;18301961;32;20140;-65
2022/05/31 14:53:39;;;;;;;3.22;1.30;;;;;;;26.65;32.42;100355.25;18304423;32;20109;-65
2022/05/31 15:03:45;;;;;;;4.33;1.53;;;;;;;26.80;31.42;100349.78;18298023;32;20162;-65
2022/05/31 15:24:31;;;;;;;5.75;2.03;;;;;;;26.20;32.83;100330.81;18299381;32;20497;-65
2022/05/31 15:34:36;;;;;;;4.97;2.58;;;;;;;26.16;33.67;100333.62;18301178;32;20501;-65
2022/05/31 15:44:39;;;;;;;4.50;2.45;;;;;;;26.47;34.03;100314.63;18300436;32;20406;-65
2022/05/31 15:54:48;;;;;;;4.43;2.35;;;;;;;25.83;34.22;100318.97;18295272;32;20115;-65
2022/05/31 16:04:51;;;;;;;6.85;2.58;;;;;;;25.32;37.43;100331.16;18303005;32;20184;-65
2022/05/31 16:14:56;;;;;;;5.00;2.58;;;;;;;24.83;36.84;100329.88;18302109;32;20109;-65
2022/05/31 16:25:01;;;;;;;5.43;2.53;;;;;;;24.60;37.62;100331.28;18305388;32;20104;-66
2022/05/31 16:35:07;;;;;;;5.80;2.05;;;;;;;24.57;38.80;100326.16;18303365;32;20181;-66
2022/05/31 16:45:12;;;;;;;4.03;1.90;;;;;;;24.46;39.74;100321.47;18307106;32;20077;-65
2022/05/31 16:55:19;;;;;;;2.67;1.12;;;;;;;24.17;40.05;100314.28;18305448;32;20121;-66
2022/05/31 17:05:23;;;;;;;2.15;1.05;;;;;;;24.35;39.38;100316.78;18304141;32;20375;-66
2022/05/31 17:15:30;;;;;;;2.87;1.17;;;;;;;24.47;39.36;100320.53;18303035;32;20101;-66
2022/05/31 17:25:39;;;;;;;1.27;0.95;;;;;;;24.62;38.25;100322.25;18303633;32;20105;-67
2022/05/31 17:35:44;;;;;;;0.85;0.73;;;;;;;24.39;39.88;100321.00;18301115;32;20094;-67
2022/05/31 17:45:48;;;;;;;2.55;1.12;;;;;;;23.91;41.27;100321.19;18305552;32;20115;-66
2022/05/31 17:55:52;;;;;;;4.43;1.55;;;;;;;23.61;41.92;100306.91;18305591;32;20089;-67
2022/05/31 18:05:57;;;;;;;5.78;1.30;;;;;;;23.23;43.06;100326.78;18298976;32;20133;-67
2022/05/31 18:16:02;;;;;;;2.42;1.30;;;;;;;22.87;44.36;100334.09;18303962;32;20187;-67
2022/05/31 18:26:06;;;;;;;1.98;1.27;;;;;;;22.28;46.21;100341.66;18300152;32;20102;-67
2022/05/31 18:36:17;;;;;;;3.83;1.62;;;;;;;21.62;48.40;100352.87;18304613;32;20081;-66
2022/05/31 18:46:24;;;;;;;2.67;1.20;;;;;;;20.92;51.46;100356.16;18300806;32;20119;-66
2022/05/31 18:56:29;;;;;;;6.82;2.78;;;;;;;21.00;51.23;100354.97;18304468;32;20090;-66
2022/05/31 19:06:33;;;;;;;3.87;1.75;;;;;;;20.83;50.96;100358.41;18297552;32;20097;-66
2022/05/31 19:16:37;;;;;;;3.50;1.30;;;;;;;20.46;52.59;100367.03;18295592;32;20155;-67
2022/05/31 19:26:43;;;;;;;3.50;1.90;;;;;;;19.67;56.02;100380.94;18303771;32;20465;-67
2022/05/31 19:36:48;;;;;;;3.83;1.80;;;;;;;19.08;57.08;100389.37;18303699;32;20081;-67
2022/05/31 19:46:52;;;;;;;2.87;1.83;;;;;;;19.34;55.97;100395.44;18283533;32;20117;-67
2022/05/31 19:56:58;;;;;;;2.90;1.58;;;;;;;18.90;57.54;100396.19;18287218;32;20112;-67
2022/05/31 20:07:01;;;;;;;5.25;2.28;;;;;;;18.64;58.35;100392.72;18300842;32;20395;-67
2022/05/31 20:17:06;;;;;;;5.25;2.33;;;;;;;18.79;57.68;100395.72;18300754;32;20394;-67
2022/05/31 20:27:09;;;;;;;5.75;2.53;;;;;;;18.47;58.99;100385.41;18286074;32;20089;-67
2022/05/31 20:37:14;;;;;;;3.97;1.65;;;;;;;18.14;60.49;100399.72;18285872;32;20098;-67
2022/05/31 20:47:17;;;;;;;4.75;2.17;;;;;;;17.93;60.48;100397.78;18299424;32;20105;-67
2022/05/31 20:57:25;;;;;;;5.10;2.30;;;;;;;17.69;62.05;100393.25;18298442;32;20089;-67
2022/05/31 21:07:29;;;;;;;3.45;2.08;;;;;;;17.15;63.82;100386.97;18299726;32;20159;-67
2022/05/31 21:17:34;;;;;;;5.75;2.05;;;;;;;16.58;65.52;100390.28;18308042;32;20090;-67
2022/05/31 21:27:37;;;;;;;5.78;2.42;;;;;;;16.53;65.81;100399.25;18307764;32;20113;-66
2022/05/31 21:37:42;;;;;;;6.00;2.47;;;;;;;16.72;66.37;100405.72;18307469;32;20111;-67
2022/05/31 21:47:45;;;;;;;7.00;2.72;;;;;;;16.58;67.18;100415.78;18307000;32;20173;-67
2022/05/31 21:57:50;;;;;;;8.75;2.80;;;;;;;16.11;69.04;100424.88;18306885;32;20151;-67
2022/05/31 22:07:53;;;;;;;6.12;2.40;;;;;;;16.45;66.98;100420.50;18292051;32;20098;-67
2022/05/31 22:17:58;;;;;;;4.53;2.30;;;;;;;16.22;67.57;100416.69;18306163;32;20125;-67
2022/05/31 22:28:01;;;;;;;6.05;2.85;;;;;;;15.86;68.68;100421.94;18292317;32;20101;-67
2022/05/31 22:38:07;;;;;;;6.75;2.85;;;;;;;15.53;69.91;100425.31;18306311;32;20453;-67
2022/05/31 22:48:11;;;;;;;7.57;2.42;;;;;;;15.52;69.96;100410.44;18305803;32;20112;-67
2022/05/31 22:58:16;;;;;;;4.15;2.20;;;;;;;15.98;67.60;100405.03;18305454;32;20105;-67
2022/05/31 23:08:19;;;;;;;5.97;2.50;;;;;;;15.17;70.52;100401.53;18304952;32;20095;-67
2022/05/31 23:18:24;;;;;;;4.65;2.40;;;;;;;15.12;70.21;100389.37;18304957;32;20101;-67
2022/05/31 23:28:28;;;;;;;7.75;2.87;;;;;;;14.91;71.10;100402.97;18303559;32;20144;-67
2022/05/31 23:38:33;;;;;;;4.03;2.50;;;;;;;14.64;71.81;100397.31;18304000;32;20102;-67
2022/05/31 23:48:36;;;;;;;7.75;2.75;;;;;;;15.14;69.10;100391.97;18303102;32;20101;-67
2022/05/31 23:58:41;;;;;;;5.87;2.78;;;;;;;14.70;71.18;100394.56;18303397;32;20120;-66
